createdAt,value
2023-01-10T00:00:53.902Z,7.79
2023-01-10T00:04:09.416Z,7.81
2023-01-10T00:07:37.131Z,7.83
2023-01-10T00:10:06.881Z,7.84
2023-01-10T00:13:34.497Z,7.84
2023-01-10T00:16:04.730Z,7.87
2023-01-10T00:19:14.541Z,7.89
2023-01-10T00:22:42.086Z,7.88
2023-01-10T00:26:09.927Z,7.88
2023-01-10T00:28:59.363Z,7.90
2023-01-10T00:32:09.703Z,7.91
2023-01-10T00:35:38.825Z,7.93
2023-01-10T00:39:06.818Z,7.94
2023-01-10T00:42:20.525Z,7.94
2023-01-10T00:45:32.607Z,7.93
2023-01-10T00:49:00.151Z,7.94
2023-01-10T00:52:08.058Z,7.96
2023-01-10T00:55:17.230Z,7.96
2023-01-10T00:58:48.015Z,7.99
2023-01-10T01:02:16.071Z,7.99
2023-01-10T01:05:44.715Z,8.00
2023-01-10T01:09:12.509Z,8.04
2023-01-10T01:12:39.983Z,8.06
2023-01-10T01:15:30.186Z,8.08
2023-01-10T01:18:27.275Z,8.10
2023-01-10T01:21:55.259Z,8.15
2023-01-10T01:25:22.997Z,8.18
2023-01-10T01:28:31.076Z,8.19
2023-01-10T01:31:56.392Z,8.22
2023-01-10T01:35:08.482Z,8.23
2023-01-10T01:38:02.216Z,8.25
2023-01-10T01:41:29.773Z,8.28
2023-01-10T01:44:37.933Z,8.33
2023-01-10T01:48:05.387Z,8.35
2023-01-10T01:51:33.170Z,8.38
2023-01-10T01:55:00.906Z,8.39
2023-01-10T01:58:28.469Z,8.40
2023-01-10T02:01:36.290Z,8.40
2023-01-10T02:05:04.261Z,8.41
2023-01-10T02:08:12.910Z,8.42
2023-01-10T02:11:21.771Z,8.45
2023-01-10T02:14:49.458Z,8.47
2023-01-10T02:18:17.026Z,8.48
2023-01-10T02:21:44.853Z,8.51
2023-01-10T02:24:54.557Z,8.55
2023-01-10T02:28:22.295Z,8.59
2023-01-10T02:31:18.719Z,8.62
2023-01-10T02:34:27.373Z,8.66
2023-01-10T02:37:54.820Z,8.68
2023-01-10T02:40:44.783Z,8.70
2023-01-10T02:43:56.368Z,8.77
2023-01-10T02:46:45.443Z,8.80
2023-01-10T02:50:13.118Z,8.83
2023-01-10T02:53:22.581Z,8.87
2023-01-10T02:56:50.801Z,8.94
2023-01-10T02:59:44.756Z,8.98
2023-01-10T03:02:54.420Z,9.02
2023-01-10T03:06:22.214Z,9.04
2023-01-10T03:09:34.511Z,9.11
2023-01-10T03:13:01.587Z,9.11
2023-01-10T03:16:11.502Z,9.09
2023-01-10T03:19:39.044Z,9.12
2023-01-10T03:23:06.486Z,9.21
2023-01-10T03:26:15.240Z,9.26
2023-01-10T03:29:42.913Z,9.29
2023-01-10T03:33:10.451Z,9.31
2023-01-10T03:36:19.340Z,9.30
2023-01-10T03:39:34.891Z,9.26
2023-01-10T03:42:43.584Z,9.29
2023-01-10T03:45:55.239Z,9.31
2023-01-10T03:49:06.907Z,9.32
2023-01-10T03:52:16.662Z,9.34
2023-01-10T03:55:44.398Z,9.33
2023-01-10T03:59:09.259Z,9.19
2023-01-10T04:02:04.860Z,9.00
2023-01-10T04:05:32.610Z,8.92
2023-01-10T04:09:00.335Z,8.90
2023-01-10T04:12:27.951Z,8.84
2023-01-10T04:15:55.819Z,8.80
2023-01-10T04:19:23.622Z,8.77
2023-01-10T04:22:51.392Z,8.70
2023-01-10T04:26:00.883Z,8.58
2023-01-10T04:29:09.247Z,8.52
2023-01-10T04:32:17.801Z,8.37
2023-01-10T04:35:06.643Z,8.33
2023-01-10T04:38:16.828Z,8.25
2023-01-10T04:41:44.733Z,8.11
2023-01-10T04:44:54.505Z,8.02
2023-01-10T04:48:22.215Z,8.00
2023-01-10T04:51:14.205Z,7.91
2023-01-10T04:54:42.393Z,7.81
2023-01-10T04:57:30.514Z,7.68
2023-01-10T05:00:58.257Z,7.55
2023-01-10T05:04:25.996Z,7.47
2023-01-10T05:07:33.932Z,7.44
2023-01-10T05:10:43.635Z,7.41
2023-01-10T05:13:52.516Z,7.37
2023-01-10T05:17:20.224Z,7.45
2023-01-10T05:20:28.930Z,7.43
2023-01-10T05:23:56.704Z,7.46
2023-01-10T05:27:24.251Z,7.50
2023-01-10T05:30:51.884Z,7.55
2023-01-10T05:34:19.379Z,7.60
2023-01-10T05:37:28.058Z,7.63
2023-01-10T05:40:55.972Z,7.66
2023-01-10T05:44:23.662Z,7.64
2023-01-10T05:47:13.322Z,7.54
2023-01-10T05:50:40.993Z,7.52
2023-01-10T05:53:31.801Z,7.34
2023-01-10T05:56:59.427Z,7.26
2023-01-10T06:00:15.045Z,7.25
2023-01-10T06:03:42.748Z,7.25
2023-01-10T06:07:10.415Z,7.12
2023-01-10T06:10:42.176Z,7.08
2023-01-10T06:14:08.657Z,7.06
2023-01-10T06:17:36.337Z,7.03
2023-01-10T06:21:04.095Z,6.98
2023-01-10T06:24:31.989Z,6.94
2023-01-10T06:27:59.664Z,6.87
2023-01-10T06:31:27.498Z,6.82
2023-01-10T06:34:55.193Z,6.80
2023-01-10T06:38:03.835Z,6.75
2023-01-10T06:41:31.392Z,6.69
2023-01-10T06:44:40.751Z,6.64
2023-01-10T06:47:30.469Z,6.60
2023-01-10T06:50:38.397Z,6.59
2023-01-10T06:54:06.127Z,6.53
2023-01-10T06:57:33.849Z,6.53
2023-01-10T07:00:42.431Z,6.48
2023-01-10T07:03:33.018Z,6.45
2023-01-10T07:06:22.523Z,6.47
2023-01-10T07:09:50.746Z,6.44
2023-01-10T07:13:18.483Z,6.45
2023-01-10T07:16:46.287Z,6.41
2023-01-10T07:20:09.630Z,6.33
2023-01-10T07:23:37.754Z,6.28
2023-01-10T07:26:45.638Z,6.28
2023-01-10T07:30:13.834Z,6.23
2023-01-10T07:33:42.002Z,6.19
2023-01-10T07:37:09.769Z,6.17
2023-01-10T07:40:38.006Z,6.13
2023-01-10T07:43:47.072Z,6.07
2023-01-10T07:46:51.914Z,6.08
2023-01-10T07:49:57.216Z,6.07
2023-01-10T07:53:25.013Z,6.09
2023-01-10T07:56:53.106Z,6.11
2023-01-10T08:00:22.497Z,6.13
2023-01-10T08:03:50.689Z,6.14
2023-01-10T08:06:47.615Z,6.19
2023-01-10T08:10:15.625Z,6.13
2023-01-10T08:13:43.584Z,6.15
2023-01-10T08:16:35.415Z,6.13
2023-01-10T08:20:03.289Z,6.17
2023-01-10T08:23:31.358Z,6.15
2023-01-10T08:26:39.168Z,6.17
2023-01-10T08:29:47.110Z,6.20
2023-01-10T08:33:15.197Z,6.27
2023-01-10T08:36:43.339Z,6.22
2023-01-10T08:39:32.222Z,6.24
2023-01-10T08:42:47.847Z,6.10
2023-01-10T08:46:15.955Z,6.12
2023-01-10T08:49:44.259Z,6.02
2023-01-10T08:53:12.347Z,6.03
2023-01-10T08:56:40.079Z,5.97
2023-01-10T09:00:08.311Z,6.06
2023-01-10T09:03:36.235Z,6.05
2023-01-10T09:07:04.305Z,6.03
2023-01-10T09:10:12.221Z,5.99
2023-01-10T09:13:40.352Z,5.96
2023-01-10T09:17:08.369Z,6.09
2023-01-10T09:20:36.546Z,6.06
2023-01-10T09:24:04.338Z,6.03
2023-01-10T09:27:32.228Z,6.07
2023-01-10T09:31:00.544Z,6.23
2023-01-10T09:34:23.927Z,6.31
2023-01-10T09:37:51.937Z,6.46
2023-01-10T09:41:16.079Z,6.50
2023-01-10T09:44:44.226Z,6.48
2023-01-10T09:47:42.358Z,6.45
2023-01-10T09:50:51.972Z,6.44
2023-01-10T09:53:41.285Z,6.44
2023-01-10T09:56:50.250Z,6.44
2023-01-10T10:00:18.071Z,6.38
2023-01-10T10:03:46.183Z,6.27
2023-01-10T10:07:14.001Z,6.28
2023-01-10T10:10:42.001Z,6.21
2023-01-10T10:14:09.830Z,6.34
2023-01-10T10:17:37.565Z,6.30
2023-01-10T10:20:45.603Z,6.28
2023-01-10T10:24:08.940Z,6.28
2023-01-10T10:27:33.106Z,6.23
2023-01-10T10:31:00.912Z,6.27
2023-01-10T10:34:28.982Z,6.13
2023-01-10T10:37:57.383Z,6.10
2023-01-10T10:41:25.076Z,6.22
2023-01-10T10:44:52.972Z,6.20
2023-01-10T10:48:20.702Z,6.23
2023-01-10T10:51:48.859Z,6.40
2023-01-10T10:55:17.050Z,6.49
2023-01-10T10:58:45.101Z,6.45
2023-01-10T11:02:13.625Z,6.47
2023-01-10T11:05:41.540Z,6.33
2023-01-10T11:09:09.471Z,6.36
2023-01-10T11:12:37.300Z,6.38
2023-01-10T11:16:05.588Z,6.38
2023-01-10T11:19:33.604Z,6.44
2023-01-10T11:23:01.827Z,6.49
2023-01-10T11:25:51.140Z,6.54
2023-01-10T11:29:19.322Z,6.49
2023-01-10T11:32:47.136Z,6.54
2023-01-10T11:36:14.786Z,6.47
2023-01-10T11:39:38.410Z,6.56
2023-01-10T11:42:35.596Z,6.54
2023-01-10T11:45:24.689Z,6.55
2023-01-10T11:49:03.601Z,6.63
2023-01-10T11:52:08.101Z,6.67
2023-01-10T11:55:36.227Z,6.63
2023-01-10T11:59:04.352Z,6.51
2023-01-10T12:02:20.156Z,6.57
2023-01-10T12:05:32.124Z,6.54
2023-01-10T12:08:25.949Z,6.53
2023-01-10T12:11:53.661Z,6.50
2023-01-10T12:15:03.464Z,6.58
2023-01-10T12:17:52.628Z,6.47
2023-01-10T12:20:49.544Z,6.36
2023-01-10T12:24:17.294Z,6.40
2023-01-10T12:27:45.421Z,6.49
2023-01-10T12:31:13.341Z,6.49
2023-01-10T12:34:41.303Z,6.51
2023-01-10T12:37:49.236Z,6.61
2023-01-10T12:41:12.864Z,6.63
2023-01-10T12:44:40.874Z,6.55
2023-01-10T12:48:08.830Z,6.53
2023-01-10T12:51:17.631Z,6.52
2023-01-10T12:54:45.217Z,6.55
2023-01-10T12:58:13.089Z,6.49
2023-01-10T13:01:41.582Z,6.55
2023-01-10T13:05:09.501Z,6.58
2023-01-10T13:08:17.638Z,6.50
2023-01-10T13:11:27.573Z,6.50
2023-01-10T13:14:55.790Z,6.49
2023-01-10T13:18:23.976Z,6.36
2023-01-10T13:21:52.162Z,6.36
2023-01-10T13:25:01.021Z,6.40
2023-01-10T13:27:49.847Z,6.40
2023-01-10T13:31:17.730Z,6.33
2023-01-10T13:34:45.422Z,6.40
2023-01-10T13:38:13.578Z,6.44
2023-01-10T13:41:37.552Z,6.49
2023-01-10T13:45:05.455Z,6.53
2023-01-10T13:48:34.696Z,6.47
2023-01-10T13:51:43.842Z,6.44
2023-01-10T13:55:10.367Z,6.50
2023-01-10T13:58:33.984Z,6.57
2023-01-10T14:02:02.774Z,6.59
2023-01-10T14:05:30.855Z,6.55
2023-01-10T14:08:58.663Z,6.58
2023-01-10T14:12:06.738Z,6.52
2023-01-10T14:15:34.681Z,6.43
2023-01-10T14:19:02.593Z,6.52
2023-01-10T14:22:30.355Z,6.56
2023-01-10T14:25:58.182Z,6.60
2023-01-10T14:29:29.032Z,6.51
2023-01-10T14:32:58.041Z,6.46
2023-01-10T14:36:21.323Z,6.41
2023-01-10T14:39:49.589Z,6.45
2023-01-10T14:42:18.114Z,6.42
2023-01-10T14:45:45.894Z,6.41
2023-01-10T14:49:13.786Z,6.32
2023-01-10T14:52:41.707Z,6.23
2023-01-10T14:55:51.583Z,6.25
2023-01-10T14:59:19.659Z,6.33
2023-01-10T15:02:47.845Z,6.36
2023-01-10T15:06:16.131Z,6.34
2023-01-10T15:09:25.674Z,6.37
2023-01-10T15:12:53.583Z,6.38
2023-01-10T15:16:01.371Z,6.32
2023-01-10T15:19:11.038Z,6.33
2023-01-10T15:22:18.869Z,6.33
2023-01-10T15:28:49.649Z,6.40
2023-01-10T15:32:17.709Z,6.38
2023-01-10T15:35:46.004Z,6.43
2023-01-10T15:39:13.895Z,6.43
2023-01-10T15:42:23.964Z,6.44
2023-01-10T15:45:52.009Z,6.43
2023-01-10T15:48:56.920Z,6.42
2023-01-10T15:52:04.557Z,6.48
2023-01-10T15:55:32.967Z,6.51
2023-01-10T15:58:25.904Z,6.53
2023-01-10T16:00:57.262Z,6.57
2023-01-10T16:04:28.897Z,6.56
2023-01-10T16:07:56.539Z,6.58
2023-01-10T16:11:06.126Z,6.57
2023-01-10T16:14:13.965Z,6.53
2023-01-10T16:17:23.525Z,6.46
2023-01-10T16:20:32.946Z,6.33
2023-01-10T16:24:00.693Z,6.22
2023-01-10T16:27:08.319Z,6.14
2023-01-10T16:30:35.875Z,6.15
2023-01-10T16:34:03.805Z,6.04
2023-01-10T16:37:11.614Z,5.96
2023-01-10T16:40:39.316Z,5.95
2023-01-10T16:44:07.119Z,5.93
2023-01-10T16:47:34.627Z,5.83
2023-01-10T16:51:02.665Z,5.79
2023-01-10T16:54:30.356Z,5.79
2023-01-10T16:57:38.819Z,5.83
2023-01-10T17:01:06.690Z,5.87
2023-01-10T17:04:34.245Z,5.85
2023-01-10T17:08:02.057Z,5.87
2023-01-10T17:11:29.826Z,5.82
2023-01-10T17:14:57.619Z,5.76
2023-01-10T17:18:25.242Z,5.74
2023-01-10T17:21:32.936Z,5.74
2023-01-10T17:24:41.826Z,5.72
2023-01-10T17:28:09.558Z,5.70
2023-01-10T17:31:18.466Z,5.63
2023-01-10T17:34:46.171Z,5.67
2023-01-10T17:38:13.934Z,5.58
2023-01-10T17:41:41.603Z,5.55
2023-01-10T17:45:09.483Z,5.52
2023-01-10T17:48:18.376Z,5.51
2023-01-10T17:51:46.472Z,5.50
2023-01-10T17:55:14.386Z,5.41
2023-01-10T17:58:23.139Z,5.33
2023-01-10T18:01:51.080Z,5.28
2023-01-10T18:05:19.073Z,5.23
2023-01-10T18:08:07.833Z,5.19
2023-01-10T18:11:35.712Z,5.18
2023-01-10T18:15:03.572Z,5.19
2023-01-10T18:18:31.122Z,5.16
2023-01-10T18:21:39.069Z,5.14
2023-01-10T18:25:06.761Z,5.12
2023-01-10T18:28:40.938Z,5.08
2023-01-10T18:32:02.053Z,5.13
2023-01-10T18:35:29.686Z,5.11
2023-01-10T18:38:57.531Z,5.06
2023-01-10T18:42:06.611Z,5.06
2023-01-10T18:45:34.800Z,5.05
2023-01-10T18:49:02.460Z,5.05
2023-01-10T18:52:30.096Z,5.05
2023-01-10T18:55:58.024Z,5.07
2023-01-10T18:59:25.465Z,5.12
2023-01-10T19:02:53.441Z,5.09
2023-01-10T19:06:21.283Z,5.11
2023-01-10T19:09:48.868Z,5.09
2023-01-10T19:12:18.405Z,5.10
2023-01-10T19:15:45.859Z,5.03
2023-01-10T19:18:54.590Z,4.98
2023-01-10T19:22:22.361Z,4.94
2023-01-10T19:25:50.215Z,4.94
2023-01-10T19:29:17.944Z,4.93
2023-01-10T19:32:46.007Z,4.91
2023-01-10T19:36:13.645Z,4.87
2023-01-10T19:39:41.284Z,4.88
2023-01-10T19:43:08.902Z,4.83
2023-01-10T19:46:36.853Z,4.86
2023-01-10T19:50:04.644Z,4.88
2023-01-10T19:53:32.395Z,4.91
2023-01-10T19:57:00.423Z,4.94
2023-01-10T19:59:48.984Z,4.96
2023-01-10T20:02:37.444Z,4.99
2023-01-10T20:05:45.512Z,5.00
2023-01-10T20:09:13.195Z,5.01
2023-01-10T20:12:02.209Z,5.02
2023-01-10T20:15:30.017Z,5.00
2023-01-10T20:18:45.550Z,5.03
2023-01-10T20:22:13.492Z,5.06
2023-01-10T20:25:41.165Z,5.03
2023-01-10T20:28:38.974Z,5.06
2023-01-10T20:32:06.687Z,5.06
2023-01-10T20:35:34.447Z,5.09
2023-01-10T20:38:43.181Z,5.07
2023-01-10T20:42:10.913Z,5.10
2023-01-10T20:45:19.718Z,5.14
2023-01-10T20:48:47.495Z,5.13
2023-01-10T20:51:55.985Z,5.18
2023-01-10T20:55:04.398Z,5.21
2023-01-10T20:58:31.919Z,5.23
2023-01-10T21:01:59.618Z,5.22
2023-01-10T21:05:27.173Z,5.22
2023-01-10T21:08:54.729Z,5.25
2023-01-10T21:12:24.445Z,5.24
2023-01-10T21:15:50.904Z,5.26
2023-01-10T21:19:21.209Z,5.25
2023-01-10T21:22:49.186Z,5.25
2023-01-10T21:26:17.181Z,5.25
2023-01-10T21:29:45.024Z,5.24
2023-01-10T21:33:12.577Z,5.24
2023-01-10T21:36:41.345Z,5.20
2023-01-10T21:40:09.017Z,5.19
2023-01-10T21:43:36.571Z,5.16
2023-01-10T21:46:57.482Z,5.08
2023-01-10T21:50:06.794Z,5.03
2023-01-10T21:53:07.879Z,4.98
2023-01-10T21:56:35.521Z,4.93
2023-01-10T21:59:43.552Z,4.91
2023-01-10T22:02:47.640Z,4.88
2023-01-10T22:05:27.369Z,4.84
2023-01-10T22:08:35.502Z,4.81
2023-01-10T22:11:07.686Z,4.76
2023-01-10T22:14:15.606Z,4.73
2023-01-10T22:17:31.044Z,4.71
2023-01-10T22:20:58.680Z,4.71
2023-01-10T22:24:16.527Z,4.70
2023-01-10T22:27:25.425Z,4.68
2023-01-10T22:30:33.912Z,4.67
2023-01-10T22:33:42.426Z,4.66
2023-01-10T22:36:32.103Z,4.70
2023-01-10T22:39:55.803Z,4.70
2023-01-10T22:43:23.527Z,4.68
2023-01-10T22:46:59.965Z,4.66
2023-01-10T22:50:08.533Z,4.66
2023-01-10T22:53:18.659Z,4.66
2023-01-10T22:55:47.450Z,4.66
2023-01-10T22:59:10.782Z,4.64
2023-01-10T23:02:38.773Z,4.64
2023-01-10T23:05:47.790Z,4.67
2023-01-10T23:09:15.378Z,4.68
2023-01-10T23:12:25.233Z,4.66
2023-01-10T23:15:49.145Z,4.63
2023-01-10T23:19:16.677Z,4.63
2023-01-10T23:22:25.885Z,4.65
2023-01-10T23:25:36.274Z,4.65
2023-01-10T23:28:46.059Z,4.66
2023-01-10T23:32:13.817Z,4.65
2023-01-10T23:35:33.763Z,4.63
2023-01-10T23:38:57.218Z,4.63
2023-01-10T23:41:42.294Z,4.65
2023-01-10T23:44:18.864Z,4.65
2023-01-10T23:47:42.644Z,4.64
2023-01-10T23:50:32.064Z,4.65
2023-01-10T23:53:59.833Z,4.65
2023-01-10T23:57:27.494Z,4.64
